sensor_id;sensor_type;location;lat;lon;timestamp;P1;durP1;ratioP1;P2;durP2;ratioP2
74799;SDS011;63326;45.088;7.658;2024-01-30T00:01:45;14.57;;;9.00;;
74799;SDS011;63326;45.088;7.658;2024-01-30T00:04:13;15.73;;;8.70;;
74799;SDS011;63326;45.088;7.658;2024-01-30T00:06:45;16.05;;;7.40;;
74799;SDS011;63326;45.088;7.658;2024-01-30T00:09:12;12.02;;;7.32;;
74799;SDS011;63326;45.088;7.658;2024-01-30T00:11:40;20.58;;;7.80;;
74799;SDS011;63326;45.088;7.658;2024-01-30T00:14:07;14.23;;;7.43;;
74799;SDS011;63326;45.088;7.658;2024-01-30T00:16:39;13.50;;;6.90;;
74799;SDS011;63326;45.088;7.658;2024-01-30T00:19:06;14.48;;;7.97;;
74799;SDS011;63326;45.088;7.658;2024-01-30T00:21:35;16.52;;;6.78;;
74799;SDS011;63326;45.088;7.658;2024-01-30T00:24:03;18.00;;;9.63;;
74799;SDS011;63326;45.088;7.658;2024-01-30T00:26:31;12.02;;;7.85;;
74799;SDS011;63326;45.088;7.658;2024-01-30T00:28:58;13.07;;;7.45;;
74799;SDS011;63326;45.088;7.658;2024-01-30T00:31:25;12.70;;;6.35;;
74799;SDS011;63326;45.088;7.658;2024-01-30T00:33:52;16.25;;;8.38;;
74799;SDS011;63326;45.088;7.658;2024-01-30T00:36:21;13.18;;;7.28;;
74799;SDS011;63326;45.088;7.658;2024-01-30T00:38:49;17.35;;;7.70;;
74799;SDS011;63326;45.088;7.658;2024-01-30T00:41:17;15.18;;;9.57;;
74799;SDS011;63326;45.088;7.658;2024-01-30T00:43:46;17.77;;;8.85;;
74799;SDS011;63326;45.088;7.658;2024-01-30T00:46:14;21.98;;;8.27;;
74799;SDS011;63326;45.088;7.658;2024-01-30T00:48:41;13.25;;;7.35;;
74799;SDS011;63326;45.088;7.658;2024-01-30T00:51:12;11.45;;;7.68;;
74799;SDS011;63326;45.088;7.658;2024-01-30T00:53:41;11.70;;;6.38;;
74799;SDS011;63326;45.088;7.658;2024-01-30T00:56:09;11.05;;;6.95;;
74799;SDS011;63326;45.088;7.658;2024-01-30T00:58:39;13.07;;;7.40;;
74799;SDS011;63326;45.088;7.658;2024-01-30T01:01:07;20.67;;;7.63;;
74799;SDS011;63326;45.088;7.658;2024-01-30T01:03:37;17.60;;;7.63;;
74799;SDS011;63326;45.088;7.658;2024-01-30T01:06:05;14.23;;;8.07;;
74799;SDS011;63326;45.088;7.658;2024-01-30T01:08:39;11.48;;;6.50;;
74799;SDS011;63326;45.088;7.658;2024-01-30T01:11:07;15.90;;;7.03;;
74799;SDS011;63326;45.088;7.658;2024-01-30T01:13:38;11.60;;;7.15;;
74799;SDS011;63326;45.088;7.658;2024-01-30T01:16:06;19.88;;;8.00;;
74799;SDS011;63326;45.088;7.658;2024-01-30T01:18:33;13.25;;;7.13;;
74799;SDS011;63326;45.088;7.658;2024-01-30T01:21:00;10.85;;;6.80;;
74799;SDS011;63326;45.088;7.658;2024-01-30T01:23:27;19.38;;;8.30;;
74799;SDS011;63326;45.088;7.658;2024-01-30T01:25:54;12.35;;;8.40;;
74799;SDS011;63326;45.088;7.658;2024-01-30T01:28:26;17.70;;;8.85;;
74799;SDS011;63326;45.088;7.658;2024-01-30T01:30:53;13.88;;;6.45;;
74799;SDS011;63326;45.088;7.658;2024-01-30T01:33:25;16.92;;;9.27;;
74799;SDS011;63326;45.088;7.658;2024-01-30T01:35:53;14.45;;;7.30;;
74799;SDS011;63326;45.088;7.658;2024-01-30T01:38:23;14.10;;;7.53;;
74799;SDS011;63326;45.088;7.658;2024-01-30T01:40:50;13.75;;;8.57;;
74799;SDS011;63326;45.088;7.658;2024-01-30T01:43:17;15.73;;;7.70;;
74799;SDS011;63326;45.088;7.658;2024-01-30T01:45:46;13.05;;;6.93;;
74799;SDS011;63326;45.088;7.658;2024-01-30T01:48:16;17.90;;;7.38;;
74799;SDS011;63326;45.088;7.658;2024-01-30T01:50:43;19.55;;;8.38;;
74799;SDS011;63326;45.088;7.658;2024-01-30T01:53:11;14.52;;;6.38;;
74799;SDS011;63326;45.088;7.658;2024-01-30T01:55:39;13.07;;;6.88;;
74799;SDS011;63326;45.088;7.658;2024-01-30T01:58:07;13.40;;;7.53;;
74799;SDS011;63326;45.088;7.658;2024-01-30T02:00:36;12.70;;;6.15;;
74799;SDS011;63326;45.088;7.658;2024-01-30T02:03:06;15.73;;;8.07;;
74799;SDS011;63326;45.088;7.658;2024-01-30T02:05:34;11.35;;;8.90;;
74799;SDS011;63326;45.088;7.658;2024-01-30T02:08:03;11.02;;;6.63;;
74799;SDS011;63326;45.088;7.658;2024-01-30T02:10:33;12.70;;;7.40;;
74799;SDS011;63326;45.088;7.658;2024-01-30T02:13:00;18.00;;;7.00;;
74799;SDS011;63326;45.088;7.658;2024-01-30T02:15:28;14.48;;;6.60;;
74799;SDS011;63326;45.088;7.658;2024-01-30T02:17:56;9.75;;;6.60;;
74799;SDS011;63326;45.088;7.658;2024-01-30T02:20:23;9.80;;;6.93;;
74799;SDS011;63326;45.088;7.658;2024-01-30T02:22:55;12.02;;;6.85;;
74799;SDS011;63326;45.088;7.658;2024-01-30T02:25:33;8.80;;;5.28;;
74799;SDS011;63326;45.088;7.658;2024-01-30T02:28:02;12.98;;;5.85;;
74799;SDS011;63326;45.088;7.658;2024-01-30T02:30:31;11.80;;;6.65;;
74799;SDS011;63326;45.088;7.658;2024-01-30T02:33:00;14.00;;;7.05;;
74799;SDS011;63326;45.088;7.658;2024-01-30T02:35:27;8.07;;;6.00;;
74799;SDS011;63326;45.088;7.658;2024-01-30T02:37:54;15.55;;;7.90;;
74799;SDS011;63326;45.088;7.658;2024-01-30T02:40:23;15.80;;;8.38;;
74799;SDS011;63326;45.088;7.658;2024-01-30T02:42:50;10.55;;;6.97;;
74799;SDS011;63326;45.088;7.658;2024-01-30T02:45:17;14.43;;;7.40;;
74799;SDS011;63326;45.088;7.658;2024-01-30T02:47:45;11.50;;;7.20;;
74799;SDS011;63326;45.088;7.658;2024-01-30T02:52:42;10.00;;;6.25;;
74799;SDS011;63326;45.088;7.658;2024-01-30T02:55:12;7.35;;;5.80;;
74799;SDS011;63326;45.088;7.658;2024-01-30T02:57:42;11.50;;;6.70;;
74799;SDS011;63326;45.088;7.658;2024-01-30T03:00:11;13.60;;;7.05;;
74799;SDS011;63326;45.088;7.658;2024-01-30T03:02:40;18.77;;;6.78;;
74799;SDS011;63326;45.088;7.658;2024-01-30T03:05:07;13.95;;;7.93;;
74799;SDS011;63326;45.088;7.658;2024-01-30T03:07:34;25.05;;;7.90;;
74799;SDS011;63326;45.088;7.658;2024-01-30T03:10:01;12.00;;;7.35;;
74799;SDS011;63326;45.088;7.658;2024-01-30T03:12:29;11.73;;;7.03;;
74799;SDS011;63326;45.088;7.658;2024-01-30T03:14:56;11.90;;;8.35;;
74799;SDS011;63326;45.088;7.658;2024-01-30T03:17:24;18.88;;;6.47;;
74799;SDS011;63326;45.088;7.658;2024-01-30T03:19:50;14.52;;;6.82;;
74799;SDS011;63326;45.088;7.658;2024-01-30T03:22:18;11.80;;;5.60;;
74799;SDS011;63326;45.088;7.658;2024-01-30T03:24:45;11.75;;;7.10;;
74799;SDS011;63326;45.088;7.658;2024-01-30T03:27:13;13.00;;;5.97;;
74799;SDS011;63326;45.088;7.658;2024-01-30T03:29:41;15.13;;;8.20;;
74799;SDS011;63326;45.088;7.658;2024-01-30T03:32:09;9.98;;;5.88;;
74799;SDS011;63326;45.088;7.658;2024-01-30T03:34:39;10.68;;;6.30;;
74799;SDS011;63326;45.088;7.658;2024-01-30T03:37:07;15.20;;;6.72;;
74799;SDS011;63326;45.088;7.658;2024-01-30T03:39:34;13.48;;;6.40;;
74799;SDS011;63326;45.088;7.658;2024-01-30T03:42:05;8.30;;;5.68;;
74799;SDS011;63326;45.088;7.658;2024-01-30T03:44:32;14.32;;;6.28;;
74799;SDS011;63326;45.088;7.658;2024-01-30T03:46:59;15.15;;;6.50;;
74799;SDS011;63326;45.088;7.658;2024-01-30T03:49:28;8.65;;;7.25;;
74799;SDS011;63326;45.088;7.658;2024-01-30T03:51:56;17.15;;;5.60;;
74799;SDS011;63326;45.088;7.658;2024-01-30T03:56:51;9.00;;;3.97;;
74799;SDS011;63326;45.088;7.658;2024-01-30T03:59:18;12.65;;;6.00;;
74799;SDS011;63326;45.088;7.658;2024-01-30T04:01:51;9.93;;;5.55;;
74799;SDS011;63326;45.088;7.658;2024-01-30T04:06:55;11.85;;;5.10;;
74799;SDS011;63326;45.088;7.658;2024-01-30T04:09:22;12.18;;;7.15;;
74799;SDS011;63326;45.088;7.658;2024-01-30T04:11:50;14.20;;;7.90;;
74799;SDS011;63326;45.088;7.658;2024-01-30T04:14:18;15.88;;;6.20;;
74799;SDS011;63326;45.088;7.658;2024-01-30T04:16:44;11.45;;;6.63;;
74799;SDS011;63326;45.088;7.658;2024-01-30T04:19:14;9.88;;;5.63;;
74799;SDS011;63326;45.088;7.658;2024-01-30T04:21:43;14.50;;;6.40;;
74799;SDS011;63326;45.088;7.658;2024-01-30T04:24:10;10.85;;;6.10;;
74799;SDS011;63326;45.088;7.658;2024-01-30T04:26:41;11.52;;;6.55;;
74799;SDS011;63326;45.088;7.658;2024-01-30T04:29:09;9.68;;;6.95;;
74799;SDS011;63326;45.088;7.658;2024-01-30T04:31:38;10.65;;;6.32;;
74799;SDS011;63326;45.088;7.658;2024-01-30T04:34:19;13.02;;;6.18;;
74799;SDS011;63326;45.088;7.658;2024-01-30T04:36:46;12.63;;;6.38;;
74799;SDS011;63326;45.088;7.658;2024-01-30T04:39:15;8.30;;;6.78;;
74799;SDS011;63326;45.088;7.658;2024-01-30T04:41:44;13.38;;;5.60;;
74799;SDS011;63326;45.088;7.658;2024-01-30T04:44:12;15.15;;;7.68;;
74799;SDS011;63326;45.088;7.658;2024-01-30T04:46:39;10.57;;;4.85;;
74799;SDS011;63326;45.088;7.658;2024-01-30T04:49:06;13.32;;;8.20;;
74799;SDS011;63326;45.088;7.658;2024-01-30T04:51:36;12.95;;;6.03;;
74799;SDS011;63326;45.088;7.658;2024-01-30T04:54:07;15.27;;;7.13;;
74799;SDS011;63326;45.088;7.658;2024-01-30T04:56:35;11.68;;;7.35;;
74799;SDS011;63326;45.088;7.658;2024-01-30T04:59:02;10.82;;;5.18;;
74799;SDS011;63326;45.088;7.658;2024-01-30T05:01:37;11.68;;;6.68;;
74799;SDS011;63326;45.088;7.658;2024-01-30T05:04:07;16.13;;;5.93;;
74799;SDS011;63326;45.088;7.658;2024-01-30T05:06:42;14.20;;;6.80;;
74799;SDS011;63326;45.088;7.658;2024-01-30T05:09:10;10.23;;;5.40;;
74799;SDS011;63326;45.088;7.658;2024-01-30T05:11:42;12.05;;;7.55;;
74799;SDS011;63326;45.088;7.658;2024-01-30T05:14:12;12.20;;;6.72;;
74799;SDS011;63326;45.088;7.658;2024-01-30T05:16:45;15.02;;;5.68;;
74799;SDS011;63326;45.088;7.658;2024-01-30T05:19:16;13.88;;;6.32;;
74799;SDS011;63326;45.088;7.658;2024-01-30T05:21:44;11.85;;;6.50;;
74799;SDS011;63326;45.088;7.658;2024-01-30T05:24:14;13.23;;;6.00;;
74799;SDS011;63326;45.088;7.658;2024-01-30T05:26:46;10.07;;;6.85;;
74799;SDS011;63326;45.088;7.658;2024-01-30T05:29:14;8.32;;;5.82;;
74799;SDS011;63326;45.088;7.658;2024-01-30T05:31:43;9.40;;;6.93;;
74799;SDS011;63326;45.088;7.658;2024-01-30T05:34:10;9.43;;;7.28;;
74799;SDS011;63326;45.088;7.658;2024-01-30T05:36:37;13.80;;;5.75;;
74799;SDS011;63326;45.088;7.658;2024-01-30T05:39:04;14.00;;;7.95;;
74799;SDS011;63326;45.088;7.658;2024-01-30T05:41:35;11.27;;;6.22;;
74799;SDS011;63326;45.088;7.658;2024-01-30T05:44:03;9.88;;;5.63;;
74799;SDS011;63326;45.088;7.658;2024-01-30T05:46:35;10.18;;;5.47;;
74799;SDS011;63326;45.088;7.658;2024-01-30T05:49:10;13.35;;;5.75;;
74799;SDS011;63326;45.088;7.658;2024-01-30T05:51:38;12.85;;;5.38;;
74799;SDS011;63326;45.088;7.658;2024-01-30T05:54:16;6.80;;;5.20;;
74799;SDS011;63326;45.088;7.658;2024-01-30T05:56:43;17.65;;;6.38;;
74799;SDS011;63326;45.088;7.658;2024-01-30T05:59:17;12.98;;;6.70;;
74799;SDS011;63326;45.088;7.658;2024-01-30T06:01:47;7.07;;;4.53;;
74799;SDS011;63326;45.088;7.658;2024-01-30T06:04:15;13.60;;;6.88;;
74799;SDS011;63326;45.088;7.658;2024-01-30T06:06:42;8.25;;;5.18;;
74799;SDS011;63326;45.088;7.658;2024-01-30T06:09:14;7.28;;;5.30;;
74799;SDS011;63326;45.088;7.658;2024-01-30T06:11:43;8.98;;;6.38;;
74799;SDS011;63326;45.088;7.658;2024-01-30T06:14:11;10.23;;;8.02;;
74799;SDS011;63326;45.088;7.658;2024-01-30T06:16:45;11.45;;;6.90;;
74799;SDS011;63326;45.088;7.658;2024-01-30T06:19:14;8.93;;;6.63;;
74799;SDS011;63326;45.088;7.658;2024-01-30T06:24:19;7.15;;;5.70;;
74799;SDS011;63326;45.088;7.658;2024-01-30T06:26:46;6.50;;;5.72;;
74799;SDS011;63326;45.088;7.658;2024-01-30T06:29:15;13.65;;;5.32;;
74799;SDS011;63326;45.088;7.658;2024-01-30T06:31:45;10.75;;;7.18;;
74799;SDS011;63326;45.088;7.658;2024-01-30T06:34:13;13.93;;;7.40;;
74799;SDS011;63326;45.088;7.658;2024-01-30T06:36:40;14.32;;;7.97;;
74799;SDS011;63326;45.088;7.658;2024-01-30T06:39:09;14.40;;;6.93;;
74799;SDS011;63326;45.088;7.658;2024-01-30T06:41:36;11.45;;;6.30;;
74799;SDS011;63326;45.088;7.658;2024-01-30T06:44:04;9.98;;;4.88;;
74799;SDS011;63326;45.088;7.658;2024-01-30T06:46:32;15.40;;;6.78;;
74799;SDS011;63326;45.088;7.658;2024-01-30T06:49:04;13.38;;;6.07;;
74799;SDS011;63326;45.088;7.658;2024-01-30T06:51:32;13.20;;;5.90;;
74799;SDS011;63326;45.088;7.658;2024-01-30T06:53:59;9.38;;;6.68;;
74799;SDS011;63326;45.088;7.658;2024-01-30T06:56:30;11.52;;;6.75;;
74799;SDS011;63326;45.088;7.658;2024-01-30T07:01:29;7.45;;;5.63;;
74799;SDS011;63326;45.088;7.658;2024-01-30T07:04:01;8.43;;;5.03;;
74799;SDS011;63326;45.088;7.658;2024-01-30T07:06:28;11.63;;;5.97;;
74799;SDS011;63326;45.088;7.658;2024-01-30T07:08:57;15.80;;;7.60;;
74799;SDS011;63326;45.088;7.658;2024-01-30T07:11:24;9.52;;;6.00;;
74799;SDS011;63326;45.088;7.658;2024-01-30T07:13:53;10.55;;;7.57;;
74799;SDS011;63326;45.088;7.658;2024-01-30T07:16:20;14.30;;;6.70;;
74799;SDS011;63326;45.088;7.658;2024-01-30T07:18:48;11.57;;;7.18;;
74799;SDS011;63326;45.088;7.658;2024-01-30T07:21:19;12.07;;;7.60;;
74799;SDS011;63326;45.088;7.658;2024-01-30T07:23:52;11.18;;;6.50;;
74799;SDS011;63326;45.088;7.658;2024-01-30T07:26:20;9.23;;;5.50;;
74799;SDS011;63326;45.088;7.658;2024-01-30T07:28:49;15.52;;;8.98;;
74799;SDS011;63326;45.088;7.658;2024-01-30T07:31:16;16.10;;;7.70;;
74799;SDS011;63326;45.088;7.658;2024-01-30T07:33:58;14.07;;;6.72;;
74799;SDS011;63326;45.088;7.658;2024-01-30T07:36:25;18.17;;;9.65;;
74799;SDS011;63326;45.088;7.658;2024-01-30T07:38:53;20.52;;;9.73;;
74799;SDS011;63326;45.088;7.658;2024-01-30T07:41:24;18.30;;;8.18;;
74799;SDS011;63326;45.088;7.658;2024-01-30T07:43:56;11.13;;;7.22;;
74799;SDS011;63326;45.088;7.658;2024-01-30T07:46:23;17.20;;;7.68;;
74799;SDS011;63326;45.088;7.658;2024-01-30T07:48:51;20.02;;;8.68;;
74799;SDS011;63326;45.088;7.658;2024-01-30T07:51:21;15.57;;;8.93;;
74799;SDS011;63326;45.088;7.658;2024-01-30T07:53:52;16.15;;;9.50;;
74799;SDS011;63326;45.088;7.658;2024-01-30T07:56:26;14.73;;;9.35;;
74799;SDS011;63326;45.088;7.658;2024-01-30T07:58:53;20.23;;;8.98;;
74799;SDS011;63326;45.088;7.658;2024-01-30T08:03:51;16.90;;;9.18;;
74799;SDS011;63326;45.088;7.658;2024-01-30T08:06:20;18.17;;;9.68;;
74799;SDS011;63326;45.088;7.658;2024-01-30T08:08:50;20.85;;;12.20;;
74799;SDS011;63326;45.088;7.658;2024-01-30T08:11:24;24.20;;;12.70;;
74799;SDS011;63326;45.088;7.658;2024-01-30T08:13:57;27.23;;;13.38;;
74799;SDS011;63326;45.088;7.658;2024-01-30T08:16:26;23.63;;;11.43;;
74799;SDS011;63326;45.088;7.658;2024-01-30T08:18:53;19.77;;;9.77;;
74799;SDS011;63326;45.088;7.658;2024-01-30T08:21:25;22.63;;;11.25;;
74799;SDS011;63326;45.088;7.658;2024-01-30T08:23:52;18.17;;;11.15;;
74799;SDS011;63326;45.088;7.658;2024-01-30T08:26:22;24.40;;;10.88;;
74799;SDS011;63326;45.088;7.658;2024-01-30T08:28:49;13.68;;;8.93;;
74799;SDS011;63326;45.088;7.658;2024-01-30T08:31:17;28.70;;;11.52;;
74799;SDS011;63326;45.088;7.658;2024-01-30T08:33:46;16.52;;;9.30;;
74799;SDS011;63326;45.088;7.658;2024-01-30T08:36:16;18.30;;;10.52;;
74799;SDS011;63326;45.088;7.658;2024-01-30T08:38:46;21.85;;;9.85;;
74799;SDS011;63326;45.088;7.658;2024-01-30T08:41:13;17.60;;;8.50;;
74799;SDS011;63326;45.088;7.658;2024-01-30T08:43:50;22.33;;;10.27;;
74799;SDS011;63326;45.088;7.658;2024-01-30T08:46:37;17.75;;;9.55;;
74799;SDS011;63326;45.088;7.658;2024-01-30T08:49:20;19.17;;;8.63;;
74799;SDS011;63326;45.088;7.658;2024-01-30T08:52:08;17.92;;;9.15;;
74799;SDS011;63326;45.088;7.658;2024-01-30T08:54:52;21.15;;;10.55;;
74799;SDS011;63326;45.088;7.658;2024-01-30T08:57:43;13.93;;;9.30;;
74799;SDS011;63326;45.088;7.658;2024-01-30T09:00:23;12.50;;;8.38;;
74799;SDS011;63326;45.088;7.658;2024-01-30T09:02:59;16.15;;;10.02;;
74799;SDS011;63326;45.088;7.658;2024-01-30T09:05:28;20.25;;;9.02;;
74799;SDS011;63326;45.088;7.658;2024-01-30T09:10:43;15.90;;;8.23;;
74799;SDS011;63326;45.088;7.658;2024-01-30T09:13:30;21.30;;;10.43;;
74799;SDS011;63326;45.088;7.658;2024-01-30T09:15:58;16.02;;;9.30;;
74799;SDS011;63326;45.088;7.658;2024-01-30T09:18:38;17.10;;;10.68;;
74799;SDS011;63326;45.088;7.658;2024-01-30T09:21:46;16.95;;;8.43;;
74799;SDS011;63326;45.088;7.658;2024-01-30T09:24:13;19.48;;;10.10;;
74799;SDS011;63326;45.088;7.658;2024-01-30T09:26:40;20.95;;;9.93;;
74799;SDS011;63326;45.088;7.658;2024-01-30T09:29:08;16.40;;;10.43;;
74799;SDS011;63326;45.088;7.658;2024-01-30T09:31:35;17.27;;;10.38;;
74799;SDS011;63326;45.088;7.658;2024-01-30T09:34:02;21.48;;;10.32;;
74799;SDS011;63326;45.088;7.658;2024-01-30T09:36:31;18.33;;;11.13;;
74799;SDS011;63326;45.088;7.658;2024-01-30T09:38:58;18.63;;;11.90;;
74799;SDS011;63326;45.088;7.658;2024-01-30T09:41:25;21.40;;;10.80;;
74799;SDS011;63326;45.088;7.658;2024-01-30T09:43:56;23.65;;;11.52;;
74799;SDS011;63326;45.088;7.658;2024-01-30T09:46:24;22.45;;;12.13;;
74799;SDS011;63326;45.088;7.658;2024-01-30T09:48:57;23.92;;;11.43;;
74799;SDS011;63326;45.088;7.658;2024-01-30T09:51:25;19.55;;;11.40;;
74799;SDS011;63326;45.088;7.658;2024-01-30T09:54:02;22.30;;;11.55;;
74799;SDS011;63326;45.088;7.658;2024-01-30T09:56:29;19.25;;;10.95;;
74799;SDS011;63326;45.088;7.658;2024-01-30T09:58:58;19.38;;;10.63;;
74799;SDS011;63326;45.088;7.658;2024-01-30T10:01:27;20.67;;;12.65;;
74799;SDS011;63326;45.088;7.658;2024-01-30T10:03:55;21.27;;;12.25;;
74799;SDS011;63326;45.088;7.658;2024-01-30T10:06:24;18.65;;;11.70;;
74799;SDS011;63326;45.088;7.658;2024-01-30T10:08:51;19.95;;;12.60;;
74799;SDS011;63326;45.088;7.658;2024-01-30T10:11:18;23.85;;;12.65;;
74799;SDS011;63326;45.088;7.658;2024-01-30T10:13:45;21.38;;;14.57;;
74799;SDS011;63326;45.088;7.658;2024-01-30T10:16:14;20.45;;;13.52;;
74799;SDS011;63326;45.088;7.658;2024-01-30T10:18:48;24.10;;;12.10;;
74799;SDS011;63326;45.088;7.658;2024-01-30T10:21:15;22.23;;;14.45;;
74799;SDS011;63326;45.088;7.658;2024-01-30T10:23:43;24.67;;;13.75;;
74799;SDS011;63326;45.088;7.658;2024-01-30T10:26:11;23.95;;;12.55;;
74799;SDS011;63326;45.088;7.658;2024-01-30T10:28:41;28.60;;;15.27;;
74799;SDS011;63326;45.088;7.658;2024-01-30T10:31:09;25.05;;;13.02;;
74799;SDS011;63326;45.088;7.658;2024-01-30T10:33:36;28.88;;;14.00;;
74799;SDS011;63326;45.088;7.658;2024-01-30T10:36:04;20.85;;;11.48;;
74799;SDS011;63326;45.088;7.658;2024-01-30T10:38:32;25.85;;;11.63;;
74799;SDS011;63326;45.088;7.658;2024-01-30T10:41:02;23.02;;;12.32;;
74799;SDS011;63326;45.088;7.658;2024-01-30T10:43:30;23.00;;;12.50;;
74799;SDS011;63326;45.088;7.658;2024-01-30T10:46:12;23.33;;;12.93;;
74799;SDS011;63326;45.088;7.658;2024-01-30T10:48:58;24.27;;;13.60;;
74799;SDS011;63326;45.088;7.658;2024-01-30T10:51:27;28.83;;;14.93;;
74799;SDS011;63326;45.088;7.658;2024-01-30T10:53:56;25.10;;;12.80;;
74799;SDS011;63326;45.088;7.658;2024-01-30T10:56:24;24.38;;;13.73;;
74799;SDS011;63326;45.088;7.658;2024-01-30T10:58:52;23.80;;;13.10;;
74799;SDS011;63326;45.088;7.658;2024-01-30T11:01:20;23.75;;;14.23;;
74799;SDS011;63326;45.088;7.658;2024-01-30T11:03:52;20.15;;;12.05;;
74799;SDS011;63326;45.088;7.658;2024-01-30T11:06:24;22.15;;;13.10;;
74799;SDS011;63326;45.088;7.658;2024-01-30T11:09:04;25.40;;;13.98;;
74799;SDS011;63326;45.088;7.658;2024-01-30T11:14:26;25.52;;;13.43;;
74799;SDS011;63326;45.088;7.658;2024-01-30T11:16:59;21.17;;;12.57;;
74799;SDS011;63326;45.088;7.658;2024-01-30T11:19:30;25.42;;;13.80;;
74799;SDS011;63326;45.088;7.658;2024-01-30T11:21:59;23.10;;;13.93;;
74799;SDS011;63326;45.088;7.658;2024-01-30T11:24:27;27.90;;;15.57;;
74799;SDS011;63326;45.088;7.658;2024-01-30T11:26:57;24.25;;;13.82;;
74799;SDS011;63326;45.088;7.658;2024-01-30T11:29:28;28.42;;;14.60;;
74799;SDS011;63326;45.088;7.658;2024-01-30T11:31:59;23.50;;;12.88;;
74799;SDS011;63326;45.088;7.658;2024-01-30T11:34:26;25.33;;;12.63;;
74799;SDS011;63326;45.088;7.658;2024-01-30T11:36:58;26.42;;;13.88;;
74799;SDS011;63326;45.088;7.658;2024-01-30T11:39:29;26.73;;;13.77;;
74799;SDS011;63326;45.088;7.658;2024-01-30T11:41:58;25.30;;;13.32;;
74799;SDS011;63326;45.088;7.658;2024-01-30T11:44:25;27.67;;;13.77;;
74799;SDS011;63326;45.088;7.658;2024-01-30T11:46:53;29.40;;;13.35;;
74799;SDS011;63326;45.088;7.658;2024-01-30T11:49:20;25.90;;;14.82;;
74799;SDS011;63326;45.088;7.658;2024-01-30T11:51:51;27.30;;;16.55;;
74799;SDS011;63326;45.088;7.658;2024-01-30T11:54:20;34.00;;;15.13;;
74799;SDS011;63326;45.088;7.658;2024-01-30T11:56:47;30.15;;;15.25;;
74799;SDS011;63326;45.088;7.658;2024-01-30T11:59:14;24.83;;;15.82;;
74799;SDS011;63326;45.088;7.658;2024-01-30T12:01:42;29.38;;;16.08;;
74799;SDS011;63326;45.088;7.658;2024-01-30T12:04:10;34.42;;;17.45;;
74799;SDS011;63326;45.088;7.658;2024-01-30T12:06:37;32.47;;;15.90;;
74799;SDS011;63326;45.088;7.658;2024-01-30T12:09:06;28.13;;;15.13;;
74799;SDS011;63326;45.088;7.658;2024-01-30T12:11:43;27.00;;;14.70;;
74799;SDS011;63326;45.088;7.658;2024-01-30T12:14:16;32.35;;;15.00;;
74799;SDS011;63326;45.088;7.658;2024-01-30T12:16:43;29.42;;;15.80;;
74799;SDS011;63326;45.088;7.658;2024-01-30T12:19:21;27.55;;;16.20;;
74799;SDS011;63326;45.088;7.658;2024-01-30T12:21:57;31.25;;;13.75;;
74799;SDS011;63326;45.088;7.658;2024-01-30T12:24:26;32.85;;;14.98;;
74799;SDS011;63326;45.088;7.658;2024-01-30T12:26:58;32.35;;;18.52;;
74799;SDS011;63326;45.088;7.658;2024-01-30T12:29:25;30.38;;;15.80;;
74799;SDS011;63326;45.088;7.658;2024-01-30T12:32:00;31.60;;;15.68;;
74799;SDS011;63326;45.088;7.658;2024-01-30T12:34:32;29.52;;;15.70;;
74799;SDS011;63326;45.088;7.658;2024-01-30T12:37:15;31.88;;;17.48;;
74799;SDS011;63326;45.088;7.658;2024-01-30T12:42:48;28.38;;;16.50;;
74799;SDS011;63326;45.088;7.658;2024-01-30T12:45:18;30.27;;;15.93;;
74799;SDS011;63326;45.088;7.658;2024-01-30T12:47:49;26.75;;;16.67;;
74799;SDS011;63326;45.088;7.658;2024-01-30T12:50:17;36.50;;;17.58;;
74799;SDS011;63326;45.088;7.658;2024-01-30T12:52:46;32.17;;;17.98;;
74799;SDS011;63326;45.088;7.658;2024-01-30T12:55:16;36.45;;;18.17;;
74799;SDS011;63326;45.088;7.658;2024-01-30T12:57:44;32.38;;;18.10;;
74799;SDS011;63326;45.088;7.658;2024-01-30T13:00:15;32.42;;;16.63;;
74799;SDS011;63326;45.088;7.658;2024-01-30T13:02:45;36.67;;;19.55;;
74799;SDS011;63326;45.088;7.658;2024-01-30T13:05:12;36.95;;;19.23;;
74799;SDS011;63326;45.088;7.658;2024-01-30T13:07:40;38.05;;;16.95;;
74799;SDS011;63326;45.088;7.658;2024-01-30T13:10:10;28.80;;;15.95;;
74799;SDS011;63326;45.088;7.658;2024-01-30T13:12:39;26.63;;;15.27;;
74799;SDS011;63326;45.088;7.658;2024-01-30T13:15:06;33.05;;;16.85;;
74799;SDS011;63326;45.088;7.658;2024-01-30T13:17:34;28.17;;;15.82;;
74799;SDS011;63326;45.088;7.658;2024-01-30T13:20:03;38.65;;;19.10;;
74799;SDS011;63326;45.088;7.658;2024-01-30T13:22:37;33.33;;;18.08;;
74799;SDS011;63326;45.088;7.658;2024-01-30T13:25:06;34.17;;;18.35;;
74799;SDS011;63326;45.088;7.658;2024-01-30T13:27:35;28.85;;;17.08;;
74799;SDS011;63326;45.088;7.658;2024-01-30T13:30:06;32.40;;;18.23;;
74799;SDS011;63326;45.088;7.658;2024-01-30T13:32:36;37.42;;;19.90;;
74799;SDS011;63326;45.088;7.658;2024-01-30T13:35:06;35.03;;;16.70;;
74799;SDS011;63326;45.088;7.658;2024-01-30T13:37:38;28.95;;;15.70;;
74799;SDS011;63326;45.088;7.658;2024-01-30T13:40:06;32.60;;;18.45;;
74799;SDS011;63326;45.088;7.658;2024-01-30T13:42:38;30.25;;;16.15;;
74799;SDS011;63326;45.088;7.658;2024-01-30T13:45:05;30.23;;;16.83;;
74799;SDS011;63326;45.088;7.658;2024-01-30T13:47:32;31.15;;;16.08;;
74799;SDS011;63326;45.088;7.658;2024-01-30T13:50:00;27.15;;;15.82;;
74799;SDS011;63326;45.088;7.658;2024-01-30T13:52:28;26.33;;;15.13;;
74799;SDS011;63326;45.088;7.658;2024-01-30T13:55:05;30.73;;;13.90;;
74799;SDS011;63326;45.088;7.658;2024-01-30T13:57:32;27.38;;;14.50;;
74799;SDS011;63326;45.088;7.658;2024-01-30T14:00:05;30.88;;;15.88;;
74799;SDS011;63326;45.088;7.658;2024-01-30T14:02:39;31.75;;;13.80;;
74799;SDS011;63326;45.088;7.658;2024-01-30T14:05:07;30.73;;;14.25;;
74799;SDS011;63326;45.088;7.658;2024-01-30T14:07:35;27.45;;;14.63;;
74799;SDS011;63326;45.088;7.658;2024-01-30T14:10:07;28.15;;;12.93;;
74799;SDS011;63326;45.088;7.658;2024-01-30T14:12:44;28.15;;;12.23;;
74799;SDS011;63326;45.088;7.658;2024-01-30T14:15:15;28.13;;;13.23;;
74799;SDS011;63326;45.088;7.658;2024-01-30T14:17:54;25.92;;;13.18;;
74799;SDS011;63326;45.088;7.658;2024-01-30T14:20:24;26.77;;;13.95;;
74799;SDS011;63326;45.088;7.658;2024-01-30T14:22:52;25.88;;;12.75;;
74799;SDS011;63326;45.088;7.658;2024-01-30T14:25:22;19.40;;;10.88;;
74799;SDS011;63326;45.088;7.658;2024-01-30T14:27:49;23.48;;;12.60;;
74799;SDS011;63326;45.088;7.658;2024-01-30T14:30:17;25.33;;;11.77;;
74799;SDS011;63326;45.088;7.658;2024-01-30T14:32:45;24.90;;;12.55;;
74799;SDS011;63326;45.088;7.658;2024-01-30T14:35:18;22.80;;;11.80;;
74799;SDS011;63326;45.088;7.658;2024-01-30T14:37:47;27.02;;;11.27;;
74799;SDS011;63326;45.088;7.658;2024-01-30T14:40:14;25.73;;;11.27;;
74799;SDS011;63326;45.088;7.658;2024-01-30T14:42:41;31.58;;;12.05;;
74799;SDS011;63326;45.088;7.658;2024-01-30T14:45:10;26.83;;;11.63;;
74799;SDS011;63326;45.088;7.658;2024-01-30T14:47:39;22.38;;;10.10;;
74799;SDS011;63326;45.088;7.658;2024-01-30T14:50:10;24.95;;;11.15;;
74799;SDS011;63326;45.088;7.658;2024-01-30T14:52:36;20.85;;;10.43;;
74799;SDS011;63326;45.088;7.658;2024-01-30T14:55:06;23.98;;;10.52;;
74799;SDS011;63326;45.088;7.658;2024-01-30T14:57:34;21.67;;;9.85;;
74799;SDS011;63326;45.088;7.658;2024-01-30T15:00:01;25.80;;;11.45;;
74799;SDS011;63326;45.088;7.658;2024-01-30T15:02:29;20.05;;;11.23;;
74799;SDS011;63326;45.088;7.658;2024-01-30T15:04:57;22.95;;;11.20;;
74799;SDS011;63326;45.088;7.658;2024-01-30T15:07:27;21.92;;;9.82;;
74799;SDS011;63326;45.088;7.658;2024-01-30T15:10:05;25.88;;;11.45;;